createdAt,value
2022-11-14T00:01:00.074Z,362.33
2022-11-14T00:03:26.931Z,445.35
2022-11-14T00:08:22.782Z,363.45
2022-11-14T00:10:51.159Z,456.60
2022-11-14T00:13:19.271Z,439.10
2022-11-14T00:15:50.458Z,386.75
2022-11-14T00:18:18.137Z,311.27
2022-11-14T00:20:50.535Z,432.88
2022-11-14T00:23:17.580Z,386.48
2022-11-14T00:25:45.486Z,498.73
2022-11-14T00:28:12.591Z,446.67
2022-11-14T00:30:39.566Z,498.52
2022-11-14T00:33:06.414Z,529.95
2022-11-14T00:37:59.882Z,476.80
2022-11-14T00:42:53.404Z,567.03
2022-11-14T00:47:46.999Z,317.60
2022-11-14T00:52:40.641Z,280.65
2022-11-14T00:55:08.113Z,389.20
2022-11-14T00:57:34.975Z,424.58
2022-11-14T01:02:28.552Z,423.98
2022-11-14T01:04:55.406Z,338.83
2022-11-14T01:09:48.965Z,416.40
2022-11-14T01:12:15.844Z,382.55
2022-11-14T01:14:42.722Z,370.33
2022-11-14T01:17:09.616Z,354.83
2022-11-14T01:19:36.565Z,250.87
2022-11-14T01:22:06.496Z,386.15
2022-11-14T01:24:34.453Z,335.50
2022-11-14T01:27:01.420Z,351.55
2022-11-14T01:29:28.705Z,344.58
2022-11-14T01:31:55.891Z,365.37
2022-11-14T01:34:23.534Z,434.87
2022-11-14T01:36:50.393Z,204.30
2022-11-14T01:41:44.032Z,422.27
2022-11-14T01:44:17.125Z,475.27
2022-11-14T01:46:47.961Z,349.80
2022-11-14T01:49:19.292Z,192.93
2022-11-14T01:51:49.504Z,199.02
2022-11-14T01:54:28.678Z,263.08
2022-11-14T01:56:58.767Z,346.23
2022-11-14T01:59:29.508Z,398.55
2022-11-14T02:01:58.184Z,365.55
2022-11-14T02:04:28.640Z,448.98
2022-11-14T02:06:58.245Z,207.00
2022-11-14T02:09:26.160Z,416.62
2022-11-14T02:11:54.108Z,280.05
2022-11-14T02:14:21.090Z,178.20
2022-11-14T02:17:07.242Z,381.10
2022-11-14T02:19:49.646Z,390.05
2022-11-14T02:22:16.530Z,550.35
2022-11-14T02:24:44.542Z,411.85
2022-11-14T02:27:12.262Z,393.55
2022-11-14T02:29:39.213Z,324.70
2022-11-14T02:32:10.499Z,472.55
2022-11-14T02:34:38.369Z,137.55
2022-11-14T02:37:05.689Z,351.50
2022-11-14T02:39:32.629Z,304.08
2022-11-14T02:42:00.115Z,228.77
2022-11-14T02:44:27.023Z,291.73
2022-11-14T02:46:53.876Z,293.48
2022-11-14T02:51:47.422Z,184.20
2022-11-14T02:56:41.004Z,204.65
2022-11-14T03:01:34.639Z,208.68
2022-11-14T03:04:01.635Z,185.52
2022-11-14T03:06:28.513Z,260.00
2022-11-14T03:11:22.053Z,138.55
2022-11-14T03:16:15.642Z,214.63
2022-11-14T03:18:42.573Z,163.05
2022-11-14T03:21:11.795Z,258.70
2022-11-14T03:23:38.663Z,232.20
2022-11-14T03:31:00.387Z,139.80
2022-11-14T03:35:54.564Z,171.80
2022-11-14T03:38:24.975Z,262.30
2022-11-14T03:40:52.096Z,227.68
2022-11-14T03:43:20.261Z,229.00
2022-11-14T03:45:47.914Z,173.32
2022-11-14T03:48:15.151Z,290.87
2022-11-14T03:50:42.678Z,126.78
2022-11-14T03:53:10.204Z,375.02
2022-11-14T03:55:38.272Z,225.77
2022-11-14T03:58:05.319Z,268.50
2022-11-14T04:00:32.300Z,385.20
2022-11-14T04:02:59.259Z,266.60
2022-11-14T04:05:26.189Z,221.98
2022-11-14T04:07:53.035Z,159.63
2022-11-14T04:12:55.007Z,142.85
2022-11-14T04:15:21.855Z,177.98
2022-11-14T04:20:15.832Z,283.00
2022-11-14T04:22:42.728Z,213.20
2022-11-14T04:25:09.929Z,330.05
2022-11-14T04:27:36.879Z,209.62
2022-11-14T04:30:05.214Z,235.85
2022-11-14T04:32:32.210Z,294.58
2022-11-14T04:34:59.050Z,319.15
2022-11-14T04:39:52.688Z,387.70
2022-11-14T04:42:19.567Z,444.90
2022-11-14T04:44:46.494Z,253.90
2022-11-14T04:47:13.605Z,221.75
2022-11-14T04:49:40.501Z,164.95
2022-11-14T04:52:07.468Z,318.52
2022-11-14T04:54:34.305Z,201.52
2022-11-14T04:59:27.814Z,238.12
2022-11-14T05:01:54.767Z,232.05
2022-11-14T05:04:21.722Z,302.30
2022-11-14T05:06:48.604Z,358.98
2022-11-14T05:09:15.504Z,253.43
2022-11-14T05:11:42.357Z,251.05
2022-11-14T05:16:35.944Z,244.87
2022-11-14T05:19:03.322Z,316.95
2022-11-14T05:21:30.186Z,410.70
2022-11-14T05:26:23.694Z,386.05
2022-11-14T05:31:18.173Z,257.33
2022-11-14T05:33:46.056Z,187.73
2022-11-14T05:36:15.844Z,380.65
2022-11-14T05:38:43.137Z,156.70
2022-11-14T05:41:12.602Z,231.60
2022-11-14T05:43:39.575Z,345.25
2022-11-14T05:46:09.546Z,418.75
2022-11-14T05:48:36.709Z,490.08
2022-11-14T05:51:05.123Z,448.40
2022-11-14T05:53:33.569Z,285.42
2022-11-14T05:56:02.304Z,302.90
2022-11-14T05:58:29.447Z,211.87
2022-11-14T06:01:10.070Z,222.25
2022-11-14T06:03:40.370Z,271.62
2022-11-14T06:06:09.140Z,457.05
2022-11-14T06:08:36.797Z,351.10
2022-11-14T06:11:05.569Z,382.45
2022-11-14T06:13:33.064Z,216.77
2022-11-14T06:16:05.112Z,401.05
2022-11-14T06:18:33.105Z,314.42
2022-11-14T06:21:01.476Z,318.55
2022-11-14T06:23:29.174Z,214.32
2022-11-14T06:26:00.962Z,216.57
2022-11-14T06:28:28.627Z,203.80
2022-11-14T06:31:00.018Z,219.52
2022-11-14T06:33:27.890Z,416.08
2022-11-14T06:36:02.458Z,300.65
2022-11-14T06:38:32.241Z,335.88
2022-11-14T06:41:10.298Z,197.52
2022-11-14T06:43:38.957Z,104.00
2022-11-14T06:46:06.440Z,239.07
2022-11-14T06:48:33.813Z,177.12
2022-11-14T06:51:01.440Z,118.35
2022-11-14T06:53:30.383Z,115.00
2022-11-14T06:56:01.916Z,115.68
2022-11-14T06:58:30.414Z,124.85
2022-11-14T07:01:02.852Z,63.65
2022-11-14T07:03:29.740Z,49.53
2022-11-14T07:06:00.984Z,155.75
2022-11-14T07:08:28.294Z,141.30
2022-11-14T07:10:55.174Z,169.23
2022-11-14T07:13:22.028Z,106.57
2022-11-14T07:15:55.598Z,53.25
2022-11-14T07:18:22.469Z,60.20
2022-11-14T07:20:49.488Z,59.42
2022-11-14T07:23:21.455Z,62.78
2022-11-14T07:25:49.673Z,37.72
2022-11-14T07:28:16.542Z,151.35
2022-11-14T07:33:11.361Z,61.17
2022-11-14T07:35:41.639Z,52.22
2022-11-14T07:38:08.561Z,37.10
2022-11-14T07:40:35.679Z,82.03
2022-11-14T07:43:03.037Z,68.80
2022-11-14T07:45:30.208Z,43.63
2022-11-14T07:47:58.714Z,31.02
2022-11-14T07:50:26.784Z,27.67
2022-11-14T07:52:55.445Z,29.20
2022-11-14T07:55:22.555Z,51.53
2022-11-14T07:57:53.235Z,61.80
2022-11-14T08:00:20.266Z,45.25
2022-11-14T08:02:47.355Z,43.90
2022-11-14T08:05:14.329Z,33.97
2022-11-14T08:07:41.290Z,29.52
2022-11-14T08:10:08.977Z,41.15
2022-11-14T08:12:35.988Z,65.85
2022-11-14T08:15:02.923Z,52.47
2022-11-14T08:17:29.795Z,39.25
2022-11-14T08:22:23.309Z,35.80
2022-11-14T08:27:16.819Z,71.93
2022-11-14T08:32:10.726Z,45.20
2022-11-14T08:34:37.654Z,64.10
2022-11-14T08:37:04.570Z,56.55
2022-11-14T08:39:31.519Z,56.30
2022-11-14T08:41:58.345Z,54.05
2022-11-14T08:46:51.906Z,45.22
2022-11-14T08:51:47.547Z,37.50
2022-11-14T08:54:14.427Z,81.45
2022-11-14T08:56:41.740Z,76.72
2022-11-14T08:59:09.656Z,60.65
2022-11-14T09:01:36.515Z,65.55
2022-11-14T09:06:30.278Z,105.37
2022-11-14T09:08:57.171Z,76.30
2022-11-14T09:11:24.137Z,66.07
2022-11-14T09:13:51.002Z,45.97
2022-11-14T09:18:44.709Z,35.40
2022-11-14T09:21:12.630Z,40.85
2022-11-14T09:23:39.476Z,64.22
2022-11-14T09:28:34.234Z,59.85
2022-11-14T09:31:09.128Z,53.20
2022-11-14T09:33:36.162Z,60.38
2022-11-14T09:36:06.047Z,78.75
2022-11-14T09:38:38.246Z,96.12
2022-11-14T09:41:08.618Z,106.53
2022-11-14T09:44:03.502Z,50.92
2022-11-14T09:46:45.195Z,62.88
2022-11-14T09:49:21.947Z,58.38
2022-11-14T09:51:52.928Z,119.30
2022-11-14T09:54:35.409Z,53.85
2022-11-14T09:57:02.319Z,67.93
2022-11-14T09:59:29.707Z,53.75
2022-11-14T10:02:10.947Z,50.15
2022-11-14T10:05:05.832Z,43.25
2022-11-14T10:08:06.736Z,46.00
2022-11-14T10:10:53.564Z,56.67
2022-11-14T10:13:39.530Z,56.72
2022-11-14T10:16:30.239Z,54.33
2022-11-14T10:19:36.399Z,50.92
2022-11-14T10:22:33.473Z,34.78
2022-11-14T10:25:04.129Z,35.80
2022-11-14T10:27:43.502Z,32.67
2022-11-14T10:30:14.277Z,33.60
2022-11-14T10:32:50.953Z,33.78
2022-11-14T10:35:21.313Z,33.70
2022-11-14T10:38:07.213Z,30.50
2022-11-14T10:40:46.513Z,34.30
2022-11-14T10:43:35.457Z,57.22
2022-11-14T10:46:13.119Z,39.22
2022-11-14T10:49:00.474Z,34.22
2022-11-14T10:51:35.504Z,39.03
2022-11-14T10:54:16.131Z,43.58
2022-11-14T10:56:47.926Z,39.97
2022-11-14T10:59:14.914Z,37.33
2022-11-14T11:01:42.702Z,38.35
2022-11-14T11:04:22.776Z,42.92
2022-11-14T11:06:55.136Z,46.15
2022-11-14T11:09:45.782Z,57.95
2022-11-14T11:12:20.528Z,42.10
2022-11-14T11:15:14.030Z,41.33
2022-11-14T11:17:58.125Z,38.75
2022-11-14T11:20:37.998Z,46.05
2022-11-14T11:23:07.282Z,46.90
2022-11-14T11:25:34.704Z,44.65
2022-11-14T11:28:17.411Z,46.85
2022-11-14T11:31:03.071Z,45.53
2022-11-14T11:33:32.385Z,45.67
2022-11-14T11:36:23.026Z,49.53
2022-11-14T11:38:53.175Z,43.45
2022-11-14T11:42:07.165Z,41.10
2022-11-14T11:44:19.155Z,41.15
2022-11-14T11:46:55.367Z,42.47
2022-11-14T11:49:31.237Z,38.50
2022-11-14T11:52:03.855Z,44.15
2022-11-14T11:54:41.829Z,42.60
2022-11-14T11:57:18.554Z,43.28
2022-11-14T11:59:52.153Z,41.78
2022-11-14T12:02:24.506Z,44.90
2022-11-14T12:04:52.609Z,50.83
2022-11-14T12:07:21.934Z,42.65
2022-11-14T12:10:09.848Z,42.42
2022-11-14T12:12:59.061Z,46.40
2022-11-14T12:15:50.031Z,46.60
2022-11-14T12:18:46.263Z,44.97
2022-11-14T12:21:37.529Z,39.13
2022-11-14T12:24:07.203Z,43.17
2022-11-14T12:26:33.976Z,39.03
2022-11-14T12:31:41.790Z,34.45
2022-11-14T12:34:20.837Z,36.92
2022-11-14T12:36:47.872Z,41.72
2022-11-14T12:39:31.367Z,36.90
2022-11-14T12:42:05.984Z,39.45
2022-11-14T12:44:38.251Z,34.75
2022-11-14T12:47:07.359Z,38.10
2022-11-14T12:49:49.749Z,34.58
2022-11-14T12:52:54.218Z,30.25
2022-11-14T12:55:26.864Z,32.97
2022-11-14T12:58:18.218Z,33.75
2022-11-14T13:00:45.041Z,34.05
2022-11-14T13:05:51.484Z,27.98
2022-11-14T13:08:47.975Z,31.27
2022-11-14T13:11:53.832Z,32.05
2022-11-14T13:14:39.802Z,33.83
2022-11-14T13:17:29.223Z,35.63
2022-11-14T13:20:15.260Z,31.95
2022-11-14T13:22:44.308Z,34.95
2022-11-14T13:25:11.137Z,33.10
2022-11-14T13:31:15.690Z,35.13
2022-11-14T13:34:00.250Z,36.30
2022-11-14T13:36:33.238Z,40.40
2022-11-14T13:39:17.191Z,40.35
2022-11-14T13:42:21.270Z,38.13
2022-11-14T13:45:03.069Z,36.90
2022-11-14T13:47:35.846Z,37.45
2022-11-14T13:50:13.811Z,43.80
2022-11-14T13:52:45.804Z,48.67
2022-11-14T13:55:23.967Z,48.33
2022-11-14T13:58:31.024Z,52.67
2022-11-14T14:01:19.815Z,48.03
2022-11-14T14:04:04.311Z,41.08
2022-11-14T14:06:47.996Z,52.20
2022-11-14T14:09:38.683Z,50.38
2022-11-14T14:12:51.646Z,50.65
2022-11-14T14:15:21.589Z,54.70
2022-11-14T14:18:20.701Z,55.60
2022-11-14T14:20:51.929Z,50.30
2022-11-14T14:23:43.009Z,61.17
2022-11-14T14:26:57.275Z,52.47
2022-11-14T14:29:26.674Z,44.60
2022-11-14T14:31:53.679Z,60.75
2022-11-14T14:34:23.100Z,68.07
2022-11-14T14:36:54.794Z,62.83
2022-11-14T14:39:27.862Z,66.62
2022-11-14T14:41:56.680Z,66.18
2022-11-14T14:44:37.226Z,60.95
2022-11-14T14:47:31.488Z,70.82
2022-11-14T14:50:00.118Z,78.50
2022-11-14T14:52:37.732Z,92.28
2022-11-14T14:55:07.072Z,102.18
2022-11-14T14:57:34.895Z,78.68
2022-11-14T15:00:17.435Z,109.55
2022-11-14T15:02:44.315Z,104.57
2022-11-14T15:05:11.311Z,101.72
2022-11-14T15:07:39.351Z,104.18
2022-11-14T15:10:08.214Z,138.30
2022-11-14T15:12:35.418Z,81.25
2022-11-14T15:15:03.072Z,82.72
2022-11-14T15:17:35.517Z,144.48
2022-11-14T15:20:02.835Z,300.98
2022-11-14T15:22:29.745Z,236.50
2022-11-14T15:25:14.914Z,179.23
2022-11-14T15:27:50.678Z,91.30
2022-11-14T15:30:27.415Z,92.90
2022-11-14T15:32:56.474Z,93.15
2022-11-14T15:35:25.513Z,143.90
2022-11-14T15:38:29.235Z,258.48
2022-11-14T15:41:24.880Z,173.75
2022-11-14T15:43:53.380Z,117.80
2022-11-14T15:46:35.415Z,74.45
2022-11-14T15:49:08.359Z,173.75
2022-11-14T15:51:49.684Z,127.65
2022-11-14T15:54:27.803Z,67.00
2022-11-14T15:56:57.346Z,191.90
2022-11-14T15:59:25.102Z,74.60
2022-11-14T16:01:55.327Z,163.57
2022-11-14T16:04:26.115Z,240.18
2022-11-14T16:06:53.027Z,145.60
2022-11-14T16:09:21.359Z,194.32
2022-11-14T16:11:49.106Z,208.98
2022-11-14T16:14:16.342Z,263.52
2022-11-14T16:16:43.309Z,169.23
2022-11-14T16:19:16.451Z,264.40
2022-11-14T16:21:43.565Z,262.90
2022-11-14T16:24:15.470Z,302.35
2022-11-14T16:26:42.403Z,330.55
2022-11-14T16:29:09.288Z,334.27
2022-11-14T16:31:36.786Z,365.67
2022-11-14T16:34:03.863Z,400.45
2022-11-14T16:36:32.183Z,236.80
2022-11-14T16:39:01.511Z,399.67
2022-11-14T16:41:28.643Z,411.25
2022-11-14T16:43:56.238Z,405.50
2022-11-14T16:46:24.080Z,438.67
2022-11-14T16:48:51.231Z,443.33
2022-11-14T16:51:46.159Z,536.83
2022-11-14T16:54:04.961Z,355.80
2022-11-14T16:56:31.840Z,431.10
2022-11-14T16:58:58.719Z,347.45
2022-11-14T17:01:25.644Z,583.38
2022-11-14T17:03:52.527Z,389.27
2022-11-14T17:08:46.063Z,149.80
2022-11-14T17:13:39.754Z,359.70
2022-11-14T17:16:06.994Z,249.70
2022-11-14T17:18:38.306Z,143.15
2022-11-14T17:21:06.833Z,230.65
2022-11-14T17:23:33.923Z,238.65
2022-11-14T17:26:09.590Z,195.90
2022-11-14T17:28:38.567Z,110.97
2022-11-14T17:31:09.258Z,234.12
2022-11-14T17:33:37.039Z,258.90
2022-11-14T17:36:09.017Z,311.98
2022-11-14T17:38:37.201Z,204.85
2022-11-14T17:41:07.366Z,273.13
2022-11-14T17:43:39.229Z,228.98
2022-11-14T17:46:12.622Z,222.00
2022-11-14T17:48:43.400Z,174.68
2022-11-14T17:51:12.352Z,274.02
2022-11-14T17:53:39.959Z,341.73
2022-11-14T17:56:10.645Z,233.50
2022-11-14T17:58:37.534Z,351.25
2022-11-14T18:01:13.317Z,402.98
2022-11-14T18:03:40.481Z,181.68
2022-11-14T18:06:10.953Z,227.95
2022-11-14T18:08:38.414Z,124.70
2022-11-14T18:11:07.702Z,158.68
2022-11-14T18:13:34.856Z,238.60
2022-11-14T18:16:05.441Z,284.62
2022-11-14T18:18:33.287Z,421.00
2022-11-14T18:21:09.007Z,269.27
2022-11-14T18:23:36.252Z,277.98
2022-11-14T18:26:13.994Z,104.90
2022-11-14T18:28:41.395Z,119.85
2022-11-14T18:31:11.013Z,95.20
2022-11-14T18:33:39.223Z,105.80
2022-11-14T18:36:11.852Z,139.68
2022-11-14T18:38:38.899Z,138.48
2022-11-14T18:41:14.016Z,113.30
2022-11-14T18:43:41.223Z,104.25
2022-11-14T18:46:13.144Z,201.77
2022-11-14T18:48:41.000Z,232.05
2022-11-14T18:51:17.313Z,275.58
2022-11-14T18:53:44.306Z,180.50
2022-11-14T18:56:13.523Z,209.98
2022-11-14T18:58:41.565Z,298.17
2022-11-14T19:01:24.146Z,359.50
2022-11-14T19:03:52.072Z,358.85
2022-11-14T19:06:19.244Z,292.25
2022-11-14T19:08:46.396Z,341.35
2022-11-14T19:11:35.918Z,183.57
2022-11-14T19:14:05.171Z,367.73
2022-11-14T19:16:36.225Z,348.50
2022-11-14T19:19:04.598Z,434.70
2022-11-14T19:21:31.763Z,241.82
2022-11-14T19:23:59.756Z,424.00
2022-11-14T19:26:27.269Z,444.05
2022-11-14T19:28:54.423Z,542.60
2022-11-14T19:31:22.765Z,306.52
2022-11-14T19:33:49.830Z,458.10
2022-11-14T19:36:44.939Z,547.55
2022-11-14T19:39:07.790Z,439.85
2022-11-14T19:41:34.653Z,521.05
2022-11-14T19:44:02.820Z,321.52
2022-11-14T19:46:30.056Z,496.02
2022-11-14T19:48:58.636Z,753.58
2022-11-14T19:51:26.191Z,687.65
2022-11-14T19:53:53.680Z,500.58
2022-11-14T19:56:21.608Z,495.48
2022-11-14T19:58:49.642Z,689.17
2022-11-14T20:01:19.853Z,596.42
2022-11-14T20:04:00.690Z,362.50
2022-11-14T20:06:34.392Z,492.75
2022-11-14T20:09:04.661Z,496.83
2022-11-14T20:11:31.720Z,682.78
2022-11-14T20:13:59.325Z,732.50
2022-11-14T20:16:28.358Z,660.50
2022-11-14T20:18:59.070Z,908.67
2022-11-14T20:21:27.505Z,782.50
2022-11-14T20:23:54.573Z,626.35
2022-11-14T20:26:22.324Z,782.10
2022-11-14T20:28:52.176Z,490.33
2022-11-14T20:31:21.248Z,576.90
2022-11-14T20:33:49.600Z,784.47
2022-11-14T20:36:24.205Z,754.08
2022-11-14T20:38:52.299Z,550.53
2022-11-14T20:41:20.343Z,640.60
2022-11-14T20:43:47.582Z,620.83
2022-11-14T20:46:20.326Z,648.42
2022-11-14T20:48:48.387Z,668.60
2022-11-14T20:51:20.502Z,786.28
2022-11-14T20:53:48.591Z,686.45
2022-11-14T20:56:16.602Z,691.28
2022-11-14T20:58:44.738Z,658.00
2022-11-14T21:01:12.547Z,623.95
2022-11-14T21:03:39.976Z,599.25
2022-11-14T21:06:07.929Z,557.42
2022-11-14T21:08:36.207Z,393.45
2022-11-14T21:11:05.964Z,572.42
2022-11-14T21:14:09.585Z,604.65
2022-11-14T21:16:39.477Z,489.10
2022-11-14T21:19:07.419Z,606.65
2022-11-14T21:21:35.941Z,530.83
2022-11-14T21:24:03.127Z,591.50
2022-11-14T21:26:34.258Z,453.42
2022-11-14T21:29:09.241Z,531.70
2022-11-14T21:31:41.116Z,514.95
2022-11-14T21:34:11.703Z,657.40
2022-11-14T21:36:44.923Z,472.30
2022-11-14T21:39:16.511Z,648.40
2022-11-14T21:41:44.487Z,413.37
2022-11-14T21:44:13.528Z,742.45
2022-11-14T21:46:40.883Z,380.98
2022-11-14T21:49:07.804Z,411.48
2022-11-14T21:51:34.932Z,426.67
2022-11-14T21:54:02.994Z,594.35
2022-11-14T21:56:31.556Z,407.80
2022-11-14T21:59:16.026Z,393.83
2022-11-14T22:02:05.512Z,456.50
2022-11-14T22:04:32.789Z,493.95
2022-11-14T22:07:01.691Z,178.00
2022-11-14T22:09:28.925Z,77.05
2022-11-14T22:11:56.467Z,461.62
2022-11-14T22:14:23.698Z,538.65
2022-11-14T22:16:50.642Z,536.33
2022-11-14T22:19:18.987Z,266.80
2022-11-14T22:21:45.975Z,69.62
2022-11-14T22:24:12.905Z,67.03
2022-11-14T22:26:42.719Z,59.35
2022-11-14T22:29:09.723Z,115.68
2022-11-14T22:31:37.651Z,140.95
2022-11-14T22:34:04.891Z,389.12
2022-11-14T22:36:31.761Z,558.17
2022-11-14T22:38:58.710Z,737.45
2022-11-14T22:41:32.344Z,609.28
2022-11-14T22:44:00.317Z,330.23
2022-11-14T22:46:27.668Z,330.85
2022-11-14T22:48:55.149Z,442.77
2022-11-14T22:51:31.884Z,328.25
2022-11-14T22:53:59.268Z,273.38
2022-11-14T22:56:28.828Z,293.35
2022-11-14T22:58:56.080Z,371.85
2022-11-14T23:01:28.389Z,476.23
2022-11-14T23:03:57.240Z,431.45
2022-11-14T23:06:24.759Z,384.42
2022-11-14T23:08:51.866Z,479.10
2022-11-14T23:11:21.419Z,659.17
2022-11-14T23:13:51.012Z,556.87
2022-11-14T23:16:20.095Z,569.47
2022-11-14T23:18:47.487Z,469.73
2022-11-14T23:21:35.220Z,509.67
2022-11-14T23:24:05.315Z,446.20
2022-11-14T23:26:33.106Z,517.85
2022-11-14T23:29:00.406Z,615.38
2022-11-14T23:31:27.320Z,446.37
2022-11-14T23:33:55.542Z,649.17
2022-11-14T23:36:22.522Z,364.80
2022-11-14T23:38:49.525Z,472.75
2022-11-14T23:41:18.488Z,389.90
2022-11-14T23:43:45.915Z,298.58
2022-11-14T23:46:13.481Z,226.57
2022-11-14T23:48:40.877Z,200.68
2022-11-14T23:51:07.793Z,241.98
2022-11-14T23:53:34.713Z,258.30
2022-11-14T23:56:02.394Z,254.18
2022-11-14T23:58:30.141Z,212.65
